Strona główna
METAR-TAF:

METAR-TAF

Lotnisko :

Asunción, Paragwaj

Port lotniczy Asunción

Szerokość geograficzna: 25-16S, Długość geograficzna: 057-38W, wysokość: 101 m

Aktualna obserwacja pogody

Raport powstał 37 minut temu, godzina 03:00 UTC
Cisza
Temperatura 9°C
Wilgotność 76%
Ciśnienie 1023 hPa
Widzialność: 8000 m

METAR: SGAS 220300Z 00000KT 8000 NSC 09/05 Q1023

czas: 23:37 (03:37 UTC)

Prognoza

Raport powstał 5 godziny i 27 minut temu, godzina 22:10 UTC
Prognoza ważna od 22 godzina 00 UTC do 23 godzina 00 UTC
Wiatr 5 kt od południowo-południowy wschód
Widzialność: 6000 m
Stopniowe zmiany
od 22 godzina 04 UTC do 22 godzina 08 UTC
Widzialność 10 km lub więcej
Brak chmur poniżej 1500 m i brak chmur cumulonimbus
Stopniowe zmiany
od 22 godzina 13 UTC do 22 godzina 17 UTC
Wiatr 7 kt od wschodnio-północny wschód

TAF: SGAS 212210Z 2200/2300 16005KT 6000 NSC TX26/2219Z TN09/2210Z BECMG 2204/2208 CAVOK BECMG 2213/2217 06007KT

Obserwacja i prognoza pogody dla ponad 4000 lotnisk (raport METAR i TAF).

Dostępne stacje oznaczono żółtymi i czerwonymi punktami na mapie.

Najedź kursorem aby zobaczyć nazwę stacji.

Kliknij aby zobaczyć obserwacje i prognozy pogody.

Aby zmienić mapę: kliknij na zielony przycisk z czarnym krzyżykiem, aby powiększyć; na zielony przycisk z myślnikiem, aby pomniejszyć; na zielone strzałki, aby przejść do map sąsiednich.


METAR-TAF: